F/V Oceanie — FVBW — position and weather

sailwx.info

Track history (hours):
 
Tides and Currents Weather Stations Pressure Air Temp Water Temp Dewpoint Dewpoint Depression Visibility Wind Speed Wind Dir Waves Ship Positions

F/V Oceanie

Last reported at 2018-May-19 01:35 UTC. Time now 2018-May-20 21:49 UTC.
Position N 47°44' W 003°22'.

Length 16 m.

Type: Fishing. MMSI: 228370000.

Date/timePositionNaut miles runAvg speedWind from/ knotsBaromVisibWave heightAir tempDewpointWater temp
2018-May-19 01:35N 47°44' W 003°22'0 0.1
2018-May-19 01:30N 47°44' W 003°22'0 0.3
2018-May-19 01:01N 47°44' W 003°22'0 0.1
2018-May-19 00:31N 47°44' W 003°22'0 0.3
2018-May-19 00:00N 47°44' W 003°22'0 0.0
2018-May-18 23:30N 47°44' W 003°22'2 4.7
2018-May-18 22:59N 47°41' W 003°23'4 8.0
2018-May-18 22:30N 47°40' W 003°29'3 6.6
2018-May-18 22:00N 47°38' W 003°32'3 6.8
2018-May-18 21:30N 47°34' W 003°32'2 3.2
2018-May-18 21:00N 47°33' W 003°31'2 3.9
2018-May-18 20:30N 47°31' W 003°33'2 4.0
2018-May-18 20:00N 47°29' W 003°34'2 3.9
2018-May-18 19:30N 47°28' W 003°36'2 4.0
2018-May-18 19:00N 47°26' W 003°38'2 4.2
2018-May-18 18:30N 47°28' W 003°40'2 4.4
2018-May-18 18:01N 47°30' W 003°41'2 3.7
2018-May-18 17:31N 47°31' W 003°38'2 4.1
2018-May-18 17:00N 47°31' W 003°35'2 3.6
2018-May-18 16:31N 47°29' W 003°34'2 4.4
2018-May-18 16:01N 47°28' W 003°37'2 4.3
2018-May-18 15:30N 47°27' W 003°40'2 4.5
2018-May-18 15:01N 47°26' W 003°43'2 3.6
2018-May-18 14:30N 47°25' W 003°42'2 3.7
2018-May-18 14:01N 47°24' W 003°40'2 3.4
2018-May-18 13:31N 47°25' W 003°38'2 3.5
2018-May-18 13:00N 47°27' W 003°38'2 4.0
2018-May-18 12:30N 47°29' W 003°39'2 3.6
2018-May-18 12:00N 47°29' W 003°36'2 3.1
2018-May-18 11:31N 47°28' W 003°37'2 4.2
2018-May-18 11:00N 47°28' W 003°40'1 2.4
2018-May-18 10:31N 47°28' W 003°42'2 4.0
2018-May-18 10:00N 47°26' W 003°43'2 3.8
2018-May-18 09:30N 47°25' W 003°42'2 4.4
2018-May-18 09:00N 47°24' W 003°39'2 4.0
2018-May-18 08:30N 47°26' W 003°37'2 3.6
2018-May-18 08:00N 47°27' W 003°36'2 4.0
2018-May-18 07:30N 47°29' W 003°38'1 1.4
2018-May-18 07:00N 47°28' W 003°39'2 3.6
2018-May-18 06:30N 47°27' W 003°38'1 2.0
2018-May-18 05:58N 47°28' W 003°37'2 4.1
2018-May-18 05:31N 47°29' W 003°38'2 3.1
2018-May-18 04:59N 47°30' W 003°40'2 3.8
2018-May-18 04:29N 47°28' W 003°40'2 3.9
2018-May-18 04:00N 47°28' W 003°37'2 4.3
2018-May-18 03:31N 47°29' W 003°34'4 8.1
2018-May-18 03:00N 47°31' W 003°30'4 8.8
2018-May-18 02:31N 47°34' W 003°25'4 8.2
2018-May-18 02:00N 47°38' W 003°23'4 8.9
2018-May-18 01:31N 47°42' W 003°22'1 2.8
2018-May-18 01:01N 47°44' W 003°22'0 0.0
2018-May-18 00:31N 47°44' W 003°22'3 5.7
2018-May-18 00:00N 47°41' W 003°22'5 9.2
2018-May-17 23:30N 47°36' W 003°22'4 8.9
2018-May-17 23:01N 47°32' W 003°23'4 8.9
2018-May-17 22:30N 47°27' W 003°24'4 8.6
2018-May-17 22:01N 47°23' W 003°24'4 8.5
2018-May-17 21:30N 47°19' W 003°25'4 8.5
2018-May-17 21:00N 47°15' W 003°25'4 7.9
2018-May-17 20:30N 47°11' W 003°26'1 2.9
2018-May-17 20:00N 47°10' W 003°27'2 3.5
2018-May-17 19:25N 47°07' W 003°27'1 1.9
2018-May-17 18:44N 47°07' W 003°25'1 4.1
2018-May-17 18:30N 47°06' W 003°27'2 3.8
2018-May-17 18:00N 47°06' W 003°29'4 4.2
2018-May-17 17:06N 47°02' W 003°27'3 0.2
2018-May-17 02:18N 47°05' W 003°29'3 3.3
2018-May-17 01:31N 47°07' W 003°26'1 2.7
2018-May-17 01:05N 47°07' W 003°25'1 3.6
2018-May-17 00:51N 47°08' W 003°25'2 4.2
2018-May-17 00:26N 47°07' W 003°27'2 1.2
2018-May-16 22:53N 47°08' W 003°25'2 3.9
2018-May-16 22:27N 47°07' W 003°27'2 3.4
2018-May-16 21:59N 47°07' W 003°29'2 3.9
2018-May-16 21:29N 47°05' W 003°29'6 0.6
2018-May-16 11:46N 47°08' W 003°37'1 4.1
2018-May-16 11:28N 47°09' W 003°39'3 4.5
2018-May-16 10:46N 47°12' W 003°40'1 2.8
2018-May-16 10:26N 47°13' W 003°40'1 3.1
2018-May-16 10:00N 47°14' W 003°41'2 3.6
2018-May-16 09:29N 47°13' W 003°44'3 3.4
2018-May-16 08:44N 47°11' W 003°45'1 3.9
2018-May-16 08:29N 47°11' W 003°47'2 4.0
2018-May-16 07:52N 47°13' W 003°49'1 1.1
2018-May-16 06:35N 47°13' W 003°47'1 4.4
2018-May-16 06:17N 47°14' W 003°46'2 4.3
2018-May-16 05:56N 47°15' W 003°45'2 4.3
2018-May-16 05:30N 47°17' W 003°43'2 4.2
2018-May-16 04:59N 47°18' W 003°41'2 4.1
2018-May-16 04:30N 47°19' W 003°38'2 4.1
2018-May-16 04:00N 47°19' W 003°35'2 4.7
2018-May-16 03:30N 47°21' W 003°33'4 8.9
2018-May-16 03:00N 47°25' W 003°30'4 8.9
2018-May-16 02:30N 47°29' W 003°28'5 9.1
2018-May-16 02:00N 47°33' W 003°25'5 9.1
2018-May-16 01:30N 47°38' W 003°23'5 9.1
2018-May-16 01:00N 47°42' W 003°22'2 3.3
2018-May-16 00:30N 47°44' W 003°22'0 0.0
2018-May-16 00:00N 47°44' W 003°22'2 3.9
2018-May-15 23:30N 47°42' W 003°22'5 9.2
2018-May-15 22:59N 47°37' W 003°22'4 8.8
2018-May-15 22:31N 47°33' W 003°25'5 8.9
2018-May-15 21:58N 47°29' W 003°28'4 8.6
2018-May-15 21:30N 47°25' W 003°31'4 8.7
2018-May-15 21:00N 47°21' W 003°34'2 4.9
2018-May-15 20:30N 47°20' W 003°36'2 3.9
2018-May-15 20:00N 47°19' W 003°39'2 3.8
2018-May-15 19:30N 47°18' W 003°41'2 3.6
2018-May-15 19:01N 47°18' W 003°44'2 3.6
2018-May-15 18:29N 47°16' W 003°45'2 3.8
2018-May-15 18:00N 47°15' W 003°47'2 4.0
2018-May-15 17:31N 47°14' W 003°50'2 2.2
2018-May-15 16:41N 47°13' W 003°48'1 3.4
2018-May-15 16:29N 47°13' W 003°47'1 2.8
2018-May-15 15:57N 47°14' W 003°47'2 4.0
2018-May-15 15:31N 47°14' W 003°50'1 2.8
2018-May-15 15:00N 47°13' W 003°49'2 3.4
2018-May-15 14:30N 47°12' W 003°47'2 3.6
2018-May-15 14:00N 47°14' W 003°48'2 3.4
2018-May-15 13:30N 47°14' W 003°50'2 3.1
2018-May-15 13:00N 47°13' W 003°49'2 3.4
2018-May-15 12:30N 47°13' W 003°46'2 3.3
2018-May-15 12:01N 47°14' W 003°47'2 3.4
2018-May-15 11:25N 47°13' W 003°50'1 3.6
2018-May-15 11:00N 47°12' W 003°48'1 1.0
2018-May-15 10:06N 47°12' W 003°47'1 3.9
2018-May-15 09:50N 47°13' W 003°48'2 4.0
2018-May-15 09:27N 47°13' W 003°50'1 2.9
2018-May-15 09:00N 47°14' W 003°51'2 4.0
2018-May-15 08:29N 47°14' W 003°48'2 3.4
2018-May-15 08:00N 47°13' W 003°46'2 3.6
2018-May-15 07:30N 47°13' W 003°49'1 3.0
2018-May-15 07:00N 47°14' W 003°50'2 3.6
2018-May-15 06:30N 47°14' W 003°47'1 1.6
2018-May-15 05:38N 47°13' W 003°48'1 4.3
2018-May-15 05:30N 47°13' W 003°48'2 4.3
2018-May-15 05:00N 47°15' W 003°46'2 4.2
2018-May-15 04:27N 47°17' W 003°46'2 4.4
2018-May-15 04:01N 47°19' W 003°48'2 4.4
2018-May-15 03:30N 47°21' W 003°50'2 3.9
2018-May-15 02:58N 47°22' W 003°52'2 3.5
2018-May-15 02:29N 47°20' W 003°53'1 2.0
2018-May-15 02:00N 47°20' W 003°52'2 3.2
2018-May-15 01:30N 47°19' W 003°50'2 3.5
2018-May-15 01:00N 47°18' W 003°48'2 3.4
2018-May-15 00:30N 47°17' W 003°46'2 3.9
2018-May-14 23:55N 47°14' W 003°46'1 3.3
2018-May-14 23:30N 47°14' W 003°44'2 3.6
2018-May-14 23:00N 47°14' W 003°41'2 3.7
2018-May-14 22:30N 47°13' W 003°39'2 3.7
2018-May-14 22:00N 47°14' W 003°36'2 4.2
2018-May-14 21:30N 47°16' W 003°35'3 5.5
2018-May-14 21:00N 47°17' W 003°31'2 0.3
2018-May-14 13:49N 47°17' W 003°28'1 3.2
2018-May-14 13:30N 47°16' W 003°27'2 3.4
2018-May-14 13:00N 47°16' W 003°25'1 0.1
2018-May-14 03:55N 47°17' W 003°25'1 2.4
2018-May-14 03:30N 47°18' W 003°25'5 9.2
2018-May-14 03:01N 47°22' W 003°24'5 9.2
2018-May-14 02:31N 47°27' W 003°24'5 9.2
2018-May-14 02:01N 47°32' W 003°23'5 9.3
2018-May-14 01:31N 47°36' W 003°23'5 9.4
2018-May-14 01:00N 47°41' W 003°22'3 5.8
2018-May-14 00:31N 47°44' W 003°22'0 0.0
2018-May-14 00:01N 47°44' W 003°22'3 5.1
2018-May-13 23:31N 47°41' W 003°22'5 9.2
2018-May-13 23:01N 47°37' W 003°23'5 9.2
2018-May-13 22:31N 47°32' W 003°24'5 9.1
2018-May-13 22:00N 47°28' W 003°25'5 9.0
2018-May-13 21:30N 47°23' W 003°26'11 0.5
2018-May-13 00:47N 47°16' W 003°38'1 2.3
2018-May-13 00:30N 47°16' W 003°39'2 3.0
2018-May-12 23:57N 47°18' W 003°41'2 3.5
2018-May-12 23:31N 47°19' W 003°39'2 3.2
2018-May-12 22:57N 47°19' W 003°37'2 3.8
2018-May-12 22:29N 47°18' W 003°35'2 3.6
2018-May-12 21:57N 47°16' W 003°33'2 3.5
2018-May-12 21:22N 47°16' W 003°30'1 3.3
2018-May-12 21:00N 47°16' W 003°28'1 2.1
2018-May-12 20:31N 47°16' W 003°26'0 0.6
2018-May-12 20:01N 47°16' W 003°27'1 1.4
2018-May-12 19:30N 47°16' W 003°28'1 2.3
2018-May-12 19:00N 47°16' W 003°26'2 3.1
2018-May-12 18:30N 47°17' W 003°26'2 3.8
2018-May-12 17:59N 47°16' W 003°28'1 2.1
2018-May-12 17:31N 47°16' W 003°27'1 1.9
2018-May-12 16:59N 47°17' W 003°27'2 3.6
2018-May-12 16:30N 47°16' W 003°28'2 3.9
2018-May-12 16:00N 47°17' W 003°31'1 2.7
2018-May-12 15:30N 47°18' W 003°29'2 3.6
2018-May-12 15:00N 47°18' W 003°27'2 3.4
2018-May-12 14:30N 47°17' W 003°29'2 4.1
2018-May-12 14:00N 47°16' W 003°32'2 4.6
2018-May-12 13:30N 47°17' W 003°35'2 3.6
2018-May-12 12:57N 47°17' W 003°38'2 4.1
2018-May-12 12:30N 47°17' W 003°41'9 1.7
2018-May-12 07:11N 47°20' W 003°53'1 4.0
2018-May-12 06:59N 47°21' W 003°52'2 4.1
2018-May-12 06:29N 47°22' W 003°50'2 4.4
2018-May-12 06:00N 47°24' W 003°48'3 6.9
2018-May-12 05:30N 47°26' W 003°44'5 9.1
2018-May-12 05:01N 47°30' W 003°41'4 9.0
2018-May-12 04:31N 47°34' W 003°37'4 8.9
2018-May-12 04:01N 47°37' W 003°34'4 8.7
2018-May-12 03:30N 47°40' W 003°28'5 9.2
2018-May-12 03:01N 47°42' W 003°22'2 3.2
2018-May-12 02:31N 47°44' W 003°22'0 0.1
2018-May-12 02:01N 47°44' W 003°22'0 0.2
2018-May-12 01:31N 47°44' W 003°22'0 0.0
2018-May-12 01:01N 47°44' W 003°22'0 0.0
2018-May-12 00:30N 47°44' W 003°22'0 0.0
2018-May-12 00:01N 47°44' W 003°22'2 4.0
2018-May-11 23:31N 47°42' W 003°22'5 9.0
2018-May-11 23:00N 47°37' W 003°22'4 8.9
2018-May-11 22:31N 47°33' W 003°24'4 8.9
2018-May-11 22:01N 47°29' W 003°26'4 8.6
2018-May-11 21:30N 47°24' W 003°27'5 8.8
2018-May-11 20:58N 47°20' W 003°29'2 5.3
2018-May-11 20:31N 47°18' W 003°30'1 2.3
2018-May-11 19:59N 47°17' W 003°30'2 3.5
2018-May-11 19:31N 47°17' W 003°27'2 3.9
2018-May-11 19:01N 47°18' W 003°30'1 2.1
2018-May-11 18:28N 47°17' W 003°30'2 4.2
2018-May-11 18:01N 47°17' W 003°27'1 2.7
2018-May-11 17:30N 47°18' W 003°28'2 3.2
2018-May-11 17:01N 47°18' W 003°31'2 3.5
2018-May-11 16:28N 47°16' W 003°29'2 3.9
2018-May-11 16:01N 47°17' W 003°27'1 2.9
2018-May-11 15:30N 47°18' W 003°28'2 4.0
2018-May-11 15:01N 47°17' W 003°31'2 3.3
2018-May-11 14:25N 47°16' W 003°29'1 3.1
2018-May-11 14:01N 47°16' W 003°27'2 3.5
2018-May-11 13:31N 47°18' W 003°27'2 4.1
2018-May-11 13:01N 47°18' W 003°30'1 2.2
2018-May-11 12:30N 47°17' W 003°30'2 3.5
2018-May-11 12:00N 47°16' W 003°28'2 3.5
2018-May-11 11:31N 47°18' W 003°27'2 3.7
2018-May-11 11:01N 47°18' W 003°29'0 0.2
2018-May-11 10:31N 47°18' W 003°29'1 2.7
2018-May-11 09:59N 47°17' W 003°31'2 3.8
2018-May-11 09:31N 47°17' W 003°28'2 3.0
2018-May-11 09:00N 47°18' W 003°27'2 4.1
2018-May-11 08:31N 47°18' W 003°30'1 2.2
2018-May-11 08:01N 47°17' W 003°30'3 5.4
2018-May-11 07:25N 47°14' W 003°29'2 4.7
2018-May-11 07:01N 47°12' W 003°29'2 3.0
2018-May-11 06:30N 47°12' W 003°31'1 2.3
2018-May-11 05:51N 47°11' W 003°29'1 3.9
2018-May-11 05:30N 47°11' W 003°31'2 4.0
2018-May-11 05:00N 47°10' W 003°33'4 3.7
2018-May-11 04:00N 47°07' W 003°30'1 1.3
2018-May-11 03:28N 47°07' W 003°29'2 3.4
2018-May-11 02:57N 47°07' W 003°27'2 3.8
2018-May-11 02:30N 47°07' W 003°24'2 3.5
2018-May-11 02:00N 47°06' W 003°27'2 3.8
2018-May-11 01:31N 47°06' W 003°29'2 2.8
2018-May-11 00:53N 47°07' W 003°27'2 3.6
2018-May-11 00:21N 47°07' W 003°24'1 3.5
2018-May-11 00:01N 47°07' W 003°26'2 3.9
2018-May-10 23:28N 47°06' W 003°29'4 0.2
2018-May-10 04:32N 47°03' W 003°27'3 9.1
2018-May-10 04:15N 47°05' W 003°27'3 9.2
2018-May-10 03:55N 47°08' W 003°26'4 9.3
2018-May-10 03:30N 47°12' W 003°26'5 9.3
2018-May-10 03:00N 47°17' W 003°25'5 9.5
2018-May-10 02:30N 47°21' W 003°24'5 9.4
2018-May-10 02:00N 47°26' W 003°24'5 9.4
2018-May-10 01:31N 47°31' W 003°23'5 9.4
2018-May-10 01:01N 47°35' W 003°22'5 9.8
2018-May-10 00:30N 47°40' W 003°22'3 7.0
2018-May-10 00:00N 47°44' W 003°22'0 0.0
2018-May-09 23:30N 47°44' W 003°22'2 3.0
2018-May-09 23:00N 47°42' W 003°22'4 8.8
2018-May-09 22:31N 47°38' W 003°23'4 8.9
2018-May-09 22:01N 47°33' W 003°22'4 8.8
2018-May-09 21:30N 47°29' W 003°22'4 8.8
2018-May-09 21:01N 47°25' W 003°22'4 8.7
2018-May-09 20:31N 47°20' W 003°23'4 8.8
2018-May-09 20:01N 47°16' W 003°23'26 1.7
2018-May-09 05:05N 46°50' W 003°18'1 3.8
2018-May-09 04:44N 46°50' W 003°16'2 3.0
2018-May-09 04:08N 46°49' W 003°14'1 2.9
2018-May-09 03:47N 46°48' W 003°16'3 2.9
2018-May-09 02:41N 46°50' W 003°20'1 4.1
2018-May-09 02:22N 46°50' W 003°18'  
Track history (hours):
 
Tides and Currents Weather Stations Pressure Air Temp Water Temp Dewpoint Dewpoint Depression Visibility Wind Speed Wind Dir Waves Ship Positions

F/V Oceanie

Last reported at 2018-May-19 01:35 UTC. Time now 2018-May-20 21:49 UTC.
Position N 47°44' W 003°22'.

Length 16 m.

Type: Fishing. MMSI: 228370000.

Date/timePositionNaut miles runAvg speedWind from/ knotsBaromVisibWave heightAir tempDewpointWater temp
2018-May-19 01:35N 47°44' W 003°22'0 0.1
2018-May-19 01:30N 47°44' W 003°22'0 0.3
2018-May-19 01:01N 47°44' W 003°22'0 0.1
2018-May-19 00:31N 47°44' W 003°22'0 0.3
2018-May-19 00:00N 47°44' W 003°22'0 0.0
2018-May-18 23:30N 47°44' W 003°22'2 4.7
2018-May-18 22:59N 47°41' W 003°23'4 8.0
2018-May-18 22:30N 47°40' W 003°29'3 6.6
2018-May-18 22:00N 47°38' W 003°32'3 6.8
2018-May-18 21:30N 47°34' W 003°32'2 3.2
2018-May-18 21:00N 47°33' W 003°31'2 3.9
2018-May-18 20:30N 47°31' W 003°33'2 4.0
2018-May-18 20:00N 47°29' W 003°34'2 3.9
2018-May-18 19:30N 47°28' W 003°36'2 4.0
2018-May-18 19:00N 47°26' W 003°38'2 4.2
2018-May-18 18:30N 47°28' W 003°40'2 4.4
2018-May-18 18:01N 47°30' W 003°41'2 3.7
2018-May-18 17:31N 47°31' W 003°38'2 4.1
2018-May-18 17:00N 47°31' W 003°35'2 3.6
2018-May-18 16:31N 47°29' W 003°34'2 4.4
2018-May-18 16:01N 47°28' W 003°37'2 4.3
2018-May-18 15:30N 47°27' W 003°40'2 4.5
2018-May-18 15:01N 47°26' W 003°43'2 3.6
2018-May-18 14:30N 47°25' W 003°42'2 3.7
2018-May-18 14:01N 47°24' W 003°40'2 3.4
2018-May-18 13:31N 47°25' W 003°38'2 3.5
2018-May-18 13:00N 47°27' W 003°38'2 4.0
2018-May-18 12:30N 47°29' W 003°39'2 3.6
2018-May-18 12:00N 47°29' W 003°36'2 3.1
2018-May-18 11:31N 47°28' W 003°37'2 4.2
2018-May-18 11:00N 47°28' W 003°40'1 2.4
2018-May-18 10:31N 47°28' W 003°42'2 4.0
2018-May-18 10:00N 47°26' W 003°43'2 3.8
2018-May-18 09:30N 47°25' W 003°42'2 4.4
2018-May-18 09:00N 47°24' W 003°39'2 4.0
2018-May-18 08:30N 47°26' W 003°37'2 3.6
2018-May-18 08:00N 47°27' W 003°36'2 4.0
2018-May-18 07:30N 47°29' W 003°38'1 1.4
2018-May-18 07:00N 47°28' W 003°39'2 3.6
2018-May-18 06:30N 47°27' W 003°38'1 2.0
2018-May-18 05:58N 47°28' W 003°37'2 4.1
2018-May-18 05:31N 47°29' W 003°38'2 3.1
2018-May-18 04:59N 47°30' W 003°40'2 3.8
2018-May-18 04:29N 47°28' W 003°40'2 3.9
2018-May-18 04:00N 47°28' W 003°37'2 4.3
2018-May-18 03:31N 47°29' W 003°34'4 8.1
2018-May-18 03:00N 47°31' W 003°30'4 8.8
2018-May-18 02:31N 47°34' W 003°25'4 8.2
2018-May-18 02:00N 47°38' W 003°23'4 8.9
2018-May-18 01:31N 47°42' W 003°22'1 2.8
2018-May-18 01:01N 47°44' W 003°22'0 0.0
2018-May-18 00:31N 47°44' W 003°22'3 5.7
2018-May-18 00:00N 47°41' W 003°22'5 9.2
2018-May-17 23:30N 47°36' W 003°22'4 8.9
2018-May-17 23:01N 47°32' W 003°23'4 8.9
2018-May-17 22:30N 47°27' W 003°24'4 8.6
2018-May-17 22:01N 47°23' W 003°24'4 8.5
2018-May-17 21:30N 47°19' W 003°25'4 8.5
2018-May-17 21:00N 47°15' W 003°25'4 7.9
2018-May-17 20:30N 47°11' W 003°26'1 2.9
2018-May-17 20:00N 47°10' W 003°27'2 3.5
2018-May-17 19:25N 47°07' W 003°27'1 1.9
2018-May-17 18:44N 47°07' W 003°25'1 4.1
2018-May-17 18:30N 47°06' W 003°27'2 3.8
2018-May-17 18:00N 47°06' W 003°29'4 4.2
2018-May-17 17:06N 47°02' W 003°27'3 0.2
2018-May-17 02:18N 47°05' W 003°29'3 3.3
2018-May-17 01:31N 47°07' W 003°26'1 2.7
2018-May-17 01:05N 47°07' W 003°25'1 3.6
2018-May-17 00:51N 47°08' W 003°25'2 4.2
2018-May-17 00:26N 47°07' W 003°27'2 1.2
2018-May-16 22:53N 47°08' W 003°25'2 3.9
2018-May-16 22:27N 47°07' W 003°27'2 3.4
2018-May-16 21:59N 47°07' W 003°29'2 3.9
2018-May-16 21:29N 47°05' W 003°29'6 0.6
2018-May-16 11:46N 47°08' W 003°37'1 4.1
2018-May-16 11:28N 47°09' W 003°39'3 4.5
2018-May-16 10:46N 47°12' W 003°40'1 2.8
2018-May-16 10:26N 47°13' W 003°40'1 3.1
2018-May-16 10:00N 47°14' W 003°41'2 3.6
2018-May-16 09:29N 47°13' W 003°44'3 3.4
2018-May-16 08:44N 47°11' W 003°45'1 3.9
2018-May-16 08:29N 47°11' W 003°47'2 4.0
2018-May-16 07:52N 47°13' W 003°49'1 1.1
2018-May-16 06:35N 47°13' W 003°47'1 4.4
2018-May-16 06:17N 47°14' W 003°46'2 4.3
2018-May-16 05:56N 47°15' W 003°45'2 4.3
2018-May-16 05:30N 47°17' W 003°43'2 4.2
2018-May-16 04:59N 47°18' W 003°41'2 4.1
2018-May-16 04:30N 47°19' W 003°38'2 4.1
2018-May-16 04:00N 47°19' W 003°35'2 4.7
2018-May-16 03:30N 47°21' W 003°33'4 8.9
2018-May-16 03:00N 47°25' W 003°30'4 8.9
2018-May-16 02:30N 47°29' W 003°28'5 9.1
2018-May-16 02:00N 47°33' W 003°25'5 9.1
2018-May-16 01:30N 47°38' W 003°23'5 9.1
2018-May-16 01:00N 47°42' W 003°22'2 3.3
2018-May-16 00:30N 47°44' W 003°22'0 0.0
2018-May-16 00:00N 47°44' W 003°22'2 3.9
2018-May-15 23:30N 47°42' W 003°22'5 9.2
2018-May-15 22:59N 47°37' W 003°22'4 8.8
2018-May-15 22:31N 47°33' W 003°25'5 8.9
2018-May-15 21:58N 47°29' W 003°28'4 8.6
2018-May-15 21:30N 47°25' W 003°31'4 8.7
2018-May-15 21:00N 47°21' W 003°34'2 4.9
2018-May-15 20:30N 47°20' W 003°36'2 3.9
2018-May-15 20:00N 47°19' W 003°39'2 3.8
2018-May-15 19:30N 47°18' W 003°41'2 3.6
2018-May-15 19:01N 47°18' W 003°44'2 3.6
2018-May-15 18:29N 47°16' W 003°45'2 3.8
2018-May-15 18:00N 47°15' W 003°47'2 4.0
2018-May-15 17:31N 47°14' W 003°50'2 2.2
2018-May-15 16:41N 47°13' W 003°48'1 3.4
2018-May-15 16:29N 47°13' W 003°47'1 2.8
2018-May-15 15:57N 47°14' W 003°47'2 4.0
2018-May-15 15:31N 47°14' W 003°50'1 2.8
2018-May-15 15:00N 47°13' W 003°49'2 3.4
2018-May-15 14:30N 47°12' W 003°47'2 3.6
2018-May-15 14:00N 47°14' W 003°48'2 3.4
2018-May-15 13:30N 47°14' W 003°50'2 3.1
2018-May-15 13:00N 47°13' W 003°49'2 3.4
2018-May-15 12:30N 47°13' W 003°46'2 3.3
2018-May-15 12:01N 47°14' W 003°47'2 3.4
2018-May-15 11:25N 47°13' W 003°50'1 3.6
2018-May-15 11:00N 47°12' W 003°48'1 1.0
2018-May-15 10:06N 47°12' W 003°47'1 3.9
2018-May-15 09:50N 47°13' W 003°48'2 4.0
2018-May-15 09:27N 47°13' W 003°50'1 2.9
2018-May-15 09:00N 47°14' W 003°51'2 4.0
2018-May-15 08:29N 47°14' W 003°48'2 3.4
2018-May-15 08:00N 47°13' W 003°46'2 3.6
2018-May-15 07:30N 47°13' W 003°49'1 3.0
2018-May-15 07:00N 47°14' W 003°50'2 3.6
2018-May-15 06:30N 47°14' W 003°47'1 1.6
2018-May-15 05:38N 47°13' W 003°48'1 4.3
2018-May-15 05:30N 47°13' W 003°48'2 4.3
2018-May-15 05:00N 47°15' W 003°46'2 4.2
2018-May-15 04:27N 47°17' W 003°46'2 4.4
2018-May-15 04:01N 47°19' W 003°48'2 4.4
2018-May-15 03:30N 47°21' W 003°50'2 3.9
2018-May-15 02:58N 47°22' W 003°52'2 3.5
2018-May-15 02:29N 47°20' W 003°53'1 2.0
2018-May-15 02:00N 47°20' W 003°52'2 3.2
2018-May-15 01:30N 47°19' W 003°50'2 3.5
2018-May-15 01:00N 47°18' W 003°48'2 3.4
2018-May-15 00:30N 47°17' W 003°46'2 3.9
2018-May-14 23:55N 47°14' W 003°46'1 3.3
2018-May-14 23:30N 47°14' W 003°44'2 3.6
2018-May-14 23:00N 47°14' W 003°41'2 3.7
2018-May-14 22:30N 47°13' W 003°39'2 3.7
2018-May-14 22:00N 47°14' W 003°36'2 4.2
2018-May-14 21:30N 47°16' W 003°35'3 5.5
2018-May-14 21:00N 47°17' W 003°31'2 0.3
2018-May-14 13:49N 47°17' W 003°28'1 3.2
2018-May-14 13:30N 47°16' W 003°27'2 3.4
2018-May-14 13:00N 47°16' W 003°25'1 0.1
2018-May-14 03:55N 47°17' W 003°25'1 2.4
2018-May-14 03:30N 47°18' W 003°25'5 9.2
2018-May-14 03:01N 47°22' W 003°24'5 9.2
2018-May-14 02:31N 47°27' W 003°24'5 9.2
2018-May-14 02:01N 47°32' W 003°23'5 9.3
2018-May-14 01:31N 47°36' W 003°23'5 9.4
2018-May-14 01:00N 47°41' W 003°22'3 5.8
2018-May-14 00:31N 47°44' W 003°22'0 0.0
2018-May-14 00:01N 47°44' W 003°22'3 5.1
2018-May-13 23:31N 47°41' W 003°22'5 9.2
2018-May-13 23:01N 47°37' W 003°23'5 9.2
2018-May-13 22:31N 47°32' W 003°24'5 9.1
2018-May-13 22:00N 47°28' W 003°25'5 9.0
2018-May-13 21:30N 47°23' W 003°26'11 0.5
2018-May-13 00:47N 47°16' W 003°38'1 2.3
2018-May-13 00:30N 47°16' W 003°39'2 3.0
2018-May-12 23:57N 47°18' W 003°41'2 3.5
2018-May-12 23:31N 47°19' W 003°39'2 3.2
2018-May-12 22:57N 47°19' W 003°37'2 3.8
2018-May-12 22:29N 47°18' W 003°35'2 3.6
2018-May-12 21:57N 47°16' W 003°33'2 3.5
2018-May-12 21:22N 47°16' W 003°30'1 3.3
2018-May-12 21:00N 47°16' W 003°28'1 2.1
2018-May-12 20:31N 47°16' W 003°26'0 0.6
2018-May-12 20:01N 47°16' W 003°27'1 1.4
2018-May-12 19:30N 47°16' W 003°28'1 2.3
2018-May-12 19:00N 47°16' W 003°26'2 3.1
2018-May-12 18:30N 47°17' W 003°26'2 3.8
2018-May-12 17:59N 47°16' W 003°28'1 2.1
2018-May-12 17:31N 47°16' W 003°27'1 1.9
2018-May-12 16:59N 47°17' W 003°27'2 3.6
2018-May-12 16:30N 47°16' W 003°28'2 3.9
2018-May-12 16:00N 47°17' W 003°31'1 2.7
2018-May-12 15:30N 47°18' W 003°29'2 3.6
2018-May-12 15:00N 47°18' W 003°27'2 3.4
2018-May-12 14:30N 47°17' W 003°29'2 4.1
2018-May-12 14:00N 47°16' W 003°32'2 4.6
2018-May-12 13:30N 47°17' W 003°35'2 3.6
2018-May-12 12:57N 47°17' W 003°38'2 4.1
2018-May-12 12:30N 47°17' W 003°41'9 1.7
2018-May-12 07:11N 47°20' W 003°53'1 4.0
2018-May-12 06:59N 47°21' W 003°52'2 4.1
2018-May-12 06:29N 47°22' W 003°50'2 4.4
2018-May-12 06:00N 47°24' W 003°48'3 6.9
2018-May-12 05:30N 47°26' W 003°44'5 9.1
2018-May-12 05:01N 47°30' W 003°41'4 9.0
2018-May-12 04:31N 47°34' W 003°37'4 8.9
2018-May-12 04:01N 47°37' W 003°34'4 8.7
2018-May-12 03:30N 47°40' W 003°28'5 9.2
2018-May-12 03:01N 47°42' W 003°22'2 3.2
2018-May-12 02:31N 47°44' W 003°22'0 0.1
2018-May-12 02:01N 47°44' W 003°22'0 0.2
2018-May-12 01:31N 47°44' W 003°22'0 0.0
2018-May-12 01:01N 47°44' W 003°22'0 0.0
2018-May-12 00:30N 47°44' W 003°22'0 0.0
2018-May-12 00:01N 47°44' W 003°22'2 4.0
2018-May-11 23:31N 47°42' W 003°22'5 9.0
2018-May-11 23:00N 47°37' W 003°22'4 8.9
2018-May-11 22:31N 47°33' W 003°24'4 8.9
2018-May-11 22:01N 47°29' W 003°26'4 8.6
2018-May-11 21:30N 47°24' W 003°27'5 8.8
2018-May-11 20:58N 47°20' W 003°29'2 5.3
2018-May-11 20:31N 47°18' W 003°30'1 2.3
2018-May-11 19:59N 47°17' W 003°30'2 3.5
2018-May-11 19:31N 47°17' W 003°27'2 3.9
2018-May-11 19:01N 47°18' W 003°30'1 2.1
2018-May-11 18:28N 47°17' W 003°30'2 4.2
2018-May-11 18:01N 47°17' W 003°27'1 2.7
2018-May-11 17:30N 47°18' W 003°28'2 3.2
2018-May-11 17:01N 47°18' W 003°31'2 3.5
2018-May-11 16:28N 47°16' W 003°29'2 3.9
2018-May-11 16:01N 47°17' W 003°27'1 2.9
2018-May-11 15:30N 47°18' W 003°28'2 4.0
2018-May-11 15:01N 47°17' W 003°31'2 3.3
2018-May-11 14:25N 47°16' W 003°29'1 3.1
2018-May-11 14:01N 47°16' W 003°27'2 3.5
2018-May-11 13:31N 47°18' W 003°27'2 4.1
2018-May-11 13:01N 47°18' W 003°30'1 2.2
2018-May-11 12:30N 47°17' W 003°30'2 3.5
2018-May-11 12:00N 47°16' W 003°28'2 3.5
2018-May-11 11:31N 47°18' W 003°27'2 3.7
2018-May-11 11:01N 47°18' W 003°29'0 0.2
2018-May-11 10:31N 47°18' W 003°29'1 2.7
2018-May-11 09:59N 47°17' W 003°31'2 3.8
2018-May-11 09:31N 47°17' W 003°28'2 3.0
2018-May-11 09:00N 47°18' W 003°27'2 4.1
2018-May-11 08:31N 47°18' W 003°30'1 2.2
2018-May-11 08:01N 47°17' W 003°30'3 5.4
2018-May-11 07:25N 47°14' W 003°29'2 4.7
2018-May-11 07:01N 47°12' W 003°29'2 3.0
2018-May-11 06:30N 47°12' W 003°31'1 2.3
2018-May-11 05:51N 47°11' W 003°29'1 3.9
2018-May-11 05:30N 47°11' W 003°31'2 4.0
2018-May-11 05:00N 47°10' W 003°33'4 3.7
2018-May-11 04:00N 47°07' W 003°30'1 1.3
2018-May-11 03:28N 47°07' W 003°29'2 3.4
2018-May-11 02:57N 47°07' W 003°27'2 3.8
2018-May-11 02:30N 47°07' W 003°24'2 3.5
2018-May-11 02:00N 47°06' W 003°27'2 3.8
2018-May-11 01:31N 47°06' W 003°29'2 2.8
2018-May-11 00:53N 47°07' W 003°27'2 3.6
2018-May-11 00:21N 47°07' W 003°24'1 3.5
2018-May-11 00:01N 47°07' W 003°26'2 3.9
2018-May-10 23:28N 47°06' W 003°29'4 0.2
2018-May-10 04:32N 47°03' W 003°27'3 9.1
2018-May-10 04:15N 47°05' W 003°27'3 9.2
2018-May-10 03:55N 47°08' W 003°26'4 9.3
2018-May-10 03:30N 47°12' W 003°26'5 9.3
2018-May-10 03:00N 47°17' W 003°25'5 9.5
2018-May-10 02:30N 47°21' W 003°24'5 9.4
2018-May-10 02:00N 47°26' W 003°24'5 9.4
2018-May-10 01:31N 47°31' W 003°23'5 9.4
2018-May-10 01:01N 47°35' W 003°22'5 9.8
2018-May-10 00:30N 47°40' W 003°22'3 7.0
2018-May-10 00:00N 47°44' W 003°22'0 0.0
2018-May-09 23:30N 47°44' W 003°22'2 3.0
2018-May-09 23:00N 47°42' W 003°22'4 8.8
2018-May-09 22:31N 47°38' W 003°23'4 8.9
2018-May-09 22:01N 47°33' W 003°22'4 8.8
2018-May-09 21:30N 47°29' W 003°22'4 8.8
2018-May-09 21:01N 47°25' W 003°22'4 8.7
2018-May-09 20:31N 47°20' W 003°23'4 8.8
2018-May-09 20:01N 47°16' W 003°23'26 1.7
2018-May-09 05:05N 46°50' W 003°18'1 3.8
2018-May-09 04:44N 46°50' W 003°16'2 3.0
2018-May-09 04:08N 46°49' W 003°14'1 2.9
2018-May-09 03:47N 46°48' W 003°16'3 2.9
2018-May-09 02:41N 46°50' W 003°20'1 4.1
2018-May-09 02:22N 46°50' W 003°18'  

Dump ship's entire track history